sensor_id;sensor_type;location;lat;lon;timestamp;pressure;altitude;pressure_sealevel;temperature;humidity
19108;BME280;9686;48.832;9.126;2022-12-07T00:00:39;98233.03;;;7.24;nan
19108;BME280;9686;48.832;9.126;2022-12-07T00:03:05;98226.97;;;7.21;nan
19108;BME280;9686;48.832;9.126;2022-12-07T00:05:30;98232.16;;;7.25;nan
19108;BME280;9686;48.832;9.126;2022-12-07T00:07:55;98233.91;;;7.25;nan
19108;BME280;9686;48.832;9.126;2022-12-07T00:10:20;98226.91;;;7.11;nan
19108;BME280;9686;48.832;9.126;2022-12-07T00:12:46;98226.06;;;7.16;nan
19108;BME280;9686;48.832;9.126;2022-12-07T00:15:11;98221.75;;;7.16;nan
19108;BME280;9686;48.832;9.126;2022-12-07T00:17:36;98229.50;;;7.15;nan
19108;BME280;9686;48.832;9.126;2022-12-07T00:20:02;98230.34;;;7.10;nan
19108;BME280;9686;48.832;9.126;2022-12-07T00:22:27;98227.72;;;7.04;nan
19108;BME280;9686;48.832;9.126;2022-12-07T00:24:53;98216.53;;;7.13;nan
19108;BME280;9686;48.832;9.126;2022-12-07T00:27:18;98226.91;;;7.11;nan
19108;BME280;9686;48.832;9.126;2022-12-07T00:29:43;98223.50;;;7.20;nan
19108;BME280;9686;48.832;9.126;2022-12-07T00:32:08;98219.94;;;7.04;nan
19108;BME280;9686;48.832;9.126;2022-12-07T00:34:34;98222.47;;;6.98;nan
19108;BME280;9686;48.832;9.126;2022-12-07T00:36:59;98224.97;;;6.89;nan
19108;BME280;9686;48.832;9.126;2022-12-07T00:39:24;98225.16;;;7.07;nan
19108;BME280;9686;48.832;9.126;2022-12-07T00:41:50;98219.00;;;6.98;nan
19108;BME280;9686;48.832;9.126;2022-12-07T00:44:15;98218.22;;;7.06;nan
19108;BME280;9686;48.832;9.126;2022-12-07T00:46:40;98216.41;;;6.96;nan
19108;BME280;9686;48.832;9.126;2022-12-07T00:49:05;98218.13;;;6.97;nan
19108;BME280;9686;48.832;9.126;2022-12-07T00:56:27;98218.22;;;7.03;nan
19108;BME280;9686;48.832;9.126;2022-12-07T00:58:58;98222.38;;;6.89;nan
19108;BME280;9686;48.832;9.126;2022-12-07T01:01:26;98231.03;;;6.91;nan
19108;BME280;9686;48.832;9.126;2022-12-07T01:03:52;98226.66;;;6.84;nan
19108;BME280;9686;48.832;9.126;2022-12-07T01:06:19;98234.50;;;6.92;nan
19108;BME280;9686;48.832;9.126;2022-12-07T01:08:45;98227.59;;;6.92;nan
19108;BME280;9686;48.832;9.126;2022-12-07T01:11:16;98221.69;;;7.08;nan
19108;BME280;9686;48.832;9.126;2022-12-07T01:13:42;98226.78;;;6.98;nan
19108;BME280;9686;48.832;9.126;2022-12-07T01:16:10;98228.59;;;7.06;nan
19108;BME280;9686;48.832;9.126;2022-12-07T01:18:36;98229.38;;;7.01;nan
19108;BME280;9686;48.832;9.126;2022-12-07T01:21:12;98229.31;;;6.93;nan
19108;BME280;9686;48.832;9.126;2022-12-07T01:23:39;98231.06;;;6.94;nan
19108;BME280;9686;48.832;9.126;2022-12-07T01:26:06;98227.63;;;6.95;nan
19108;BME280;9686;48.832;9.126;2022-12-07T01:28:32;98225.84;;;6.88;nan
19108;BME280;9686;48.832;9.126;2022-12-07T01:31:00;98235.31;;;6.86;nan
19108;BME280;9686;48.832;9.126;2022-12-07T01:33:34;98227.66;;;7.01;nan
19108;BME280;9686;48.832;9.126;2022-12-07T01:36:04;98238.09;;;7.07;nan
19108;BME280;9686;48.832;9.126;2022-12-07T01:38:31;98240.72;;;7.10;nan
19108;BME280;9686;48.832;9.126;2022-12-07T01:40:58;98235.53;;;7.09;nan
19108;BME280;9686;48.832;9.126;2022-12-07T01:43:24;98238.81;;;6.90;nan
19108;BME280;9686;48.832;9.126;2022-12-07T01:45:50;98235.50;;;7.04;nan
19108;BME280;9686;48.832;9.126;2022-12-07T01:48:18;98236.41;;;7.13;nan
19108;BME280;9686;48.832;9.126;2022-12-07T01:50:47;98246.81;;;7.16;nan
19108;BME280;9686;48.832;9.126;2022-12-07T01:53:14;98239.84;;;7.08;nan
19108;BME280;9686;48.832;9.126;2022-12-07T01:55:42;98232.09;;;7.15;nan
19108;BME280;9686;48.832;9.126;2022-12-07T01:58:10;98238.09;;;7.07;nan
19108;BME280;9686;48.832;9.126;2022-12-07T02:00:37;98242.47;;;7.13;nan
19108;BME280;9686;48.832;9.126;2022-12-07T02:03:10;98239.84;;;7.10;nan
19108;BME280;9686;48.832;9.126;2022-12-07T02:05:38;98244.16;;;7.06;nan
19108;BME280;9686;48.832;9.126;2022-12-07T02:08:05;98239.81;;;7.07;nan
19108;BME280;9686;48.832;9.126;2022-12-07T02:10:31;98241.53;;;7.05;nan
19108;BME280;9686;48.832;9.126;2022-12-07T02:13:09;98238.09;;;7.04;nan
19108;BME280;9686;48.832;9.126;2022-12-07T02:15:51;98231.06;;;6.96;nan
19108;BME280;9686;48.832;9.126;2022-12-07T02:21:11;98232.06;;;7.10;nan
19108;BME280;9686;48.832;9.126;2022-12-07T02:31:34;98222.53;;;7.04;nan
19108;BME280;9686;48.832;9.126;2022-12-07T02:34:09;98219.97;;;7.07;nan
19108;BME280;9686;48.832;9.126;2022-12-07T02:36:40;98209.63;;;7.12;nan
19108;BME280;9686;48.832;9.126;2022-12-07T02:39:12;98216.41;;;6.98;nan
19108;BME280;9686;48.832;9.126;2022-12-07T02:41:47;98215.53;;;6.96;nan
19108;BME280;9686;48.832;9.126;2022-12-07T02:44:18;98212.03;;;6.91;nan
19108;BME280;9686;48.832;9.126;2022-12-07T02:47:06;98214.63;;;6.92;nan
19108;BME280;9686;48.832;9.126;2022-12-07T02:49:33;98206.88;;;6.92;nan
19108;BME280;9686;48.832;9.126;2022-12-07T02:51:58;98207.84;;;7.05;nan
19108;BME280;9686;48.832;9.126;2022-12-07T02:54:24;98208.66;;;6.99;nan
19108;BME280;9686;48.832;9.126;2022-12-07T03:05:10;98195.63;;;6.90;nan
19108;BME280;9686;48.832;9.126;2022-12-07T03:13:04;98196.47;;;6.89;nan
19108;BME280;9686;48.832;9.126;2022-12-07T03:15:53;98189.59;;;6.93;nan
19108;BME280;9686;48.832;9.126;2022-12-07T03:18:22;98192.03;;;6.76;nan
19108;BME280;9686;48.832;9.126;2022-12-07T03:20:51;98192.03;;;6.74;nan
19108;BME280;9686;48.832;9.126;2022-12-07T03:23:19;98196.41;;;6.80;nan
19108;BME280;9686;48.832;9.126;2022-12-07T03:25:49;98188.56;;;6.72;nan
19108;BME280;9686;48.832;9.126;2022-12-07T03:28:19;98188.53;;;6.71;nan
19108;BME280;9686;48.832;9.126;2022-12-07T03:30:54;98179.09;;;6.76;nan
19108;BME280;9686;48.832;9.126;2022-12-07T03:35:58;98192.00;;;6.71;nan
19108;BME280;9686;48.832;9.126;2022-12-07T03:38:30;98187.56;;;6.57;nan
19108;BME280;9686;48.832;9.126;2022-12-07T03:41:08;98182.38;;;6.57;nan
19108;BME280;9686;48.832;9.126;2022-12-07T03:43:36;98180.81;;;6.75;nan
19108;BME280;9686;48.832;9.126;2022-12-07T03:46:24;98185.97;;;6.72;nan
19108;BME280;9686;48.832;9.126;2022-12-07T03:51:45;98179.84;;;6.64;nan
19108;BME280;9686;48.832;9.126;2022-12-07T03:54:19;98178.16;;;6.66;nan
19108;BME280;9686;48.832;9.126;2022-12-07T03:56:47;98178.94;;;6.56;nan
19108;BME280;9686;48.832;9.126;2022-12-07T03:59:14;98172.84;;;6.53;nan
19108;BME280;9686;48.832;9.126;2022-12-07T04:01:44;98167.59;;;6.46;nan
19108;BME280;9686;48.832;9.126;2022-12-07T04:04:16;98171.97;;;6.51;nan
19108;BME280;9686;48.832;9.126;2022-12-07T04:06:42;98176.41;;;6.67;nan
19108;BME280;9686;48.832;9.126;2022-12-07T04:09:07;98170.34;;;6.62;nan
19108;BME280;9686;48.832;9.126;2022-12-07T04:11:32;98167.78;;;6.68;nan
19108;BME280;9686;48.832;9.126;2022-12-07T04:13:57;98169.41;;;6.54;nan
19108;BME280;9686;48.832;9.126;2022-12-07T04:16:41;98150.47;;;6.59;nan
19108;BME280;9686;48.832;9.126;2022-12-07T04:19:06;98153.00;;;6.52;nan
19108;BME280;9686;48.832;9.126;2022-12-07T04:21:32;98149.63;;;6.60;nan
19108;BME280;9686;48.832;9.126;2022-12-07T04:23:57;98142.50;;;6.38;nan
19108;BME280;9686;48.832;9.126;2022-12-07T04:26:22;98140.09;;;6.59;nan
19108;BME280;9686;48.832;9.126;2022-12-07T04:28:48;98143.38;;;6.40;nan
19108;BME280;9686;48.832;9.126;2022-12-07T04:31:13;98140.06;;;6.55;nan
19108;BME280;9686;48.832;9.126;2022-12-07T04:33:38;98133.03;;;6.43;nan
19108;BME280;9686;48.832;9.126;2022-12-07T04:36:04;98129.59;;;6.44;nan
19108;BME280;9686;48.832;9.126;2022-12-07T04:38:29;98133.94;;;6.46;nan
19108;BME280;9686;48.832;9.126;2022-12-07T04:40:54;98134.91;;;6.55;nan
19108;BME280;9686;48.832;9.126;2022-12-07T04:43:20;98123.66;;;6.53;nan
19108;BME280;9686;48.832;9.126;2022-12-07T04:45:46;98117.63;;;6.55;nan
19108;BME280;9686;48.832;9.126;2022-12-07T04:48:12;98121.09;;;6.57;nan
19108;BME280;9686;48.832;9.126;2022-12-07T04:50:37;98115.16;;;6.72;nan
19108;BME280;9686;48.832;9.126;2022-12-07T04:53:03;98128.06;;;6.63;nan
19108;BME280;9686;48.832;9.126;2022-12-07T04:55:28;98133.22;;;6.60;nan
19108;BME280;9686;48.832;9.126;2022-12-07T04:57:54;98140.16;;;6.65;nan
19108;BME280;9686;48.832;9.126;2022-12-07T05:00:19;98130.63;;;6.63;nan
19108;BME280;9686;48.832;9.126;2022-12-07T05:02:44;98144.41;;;6.56;nan
19108;BME280;9686;48.832;9.126;2022-12-07T05:05:10;98140.06;;;6.55;nan
19108;BME280;9686;48.832;9.126;2022-12-07T05:07:35;98148.69;;;6.54;nan
19108;BME280;9686;48.832;9.126;2022-12-07T05:10:00;98147.75;;;6.45;nan
19108;BME280;9686;48.832;9.126;2022-12-07T05:12:26;98154.50;;;6.27;nan
19108;BME280;9686;48.832;9.126;2022-12-07T05:14:51;98157.69;;;6.03;nan
19108;BME280;9686;48.832;9.126;2022-12-07T05:17:16;98166.94;;;5.85;nan
19108;BME280;9686;48.832;9.126;2022-12-07T05:19:42;98161.88;;;5.95;nan
19108;BME280;9686;48.832;9.126;2022-12-07T05:22:07;98164.06;;;5.64;nan
19108;BME280;9686;48.832;9.126;2022-12-07T05:24:32;98162.34;;;5.63;nan
19108;BME280;9686;48.832;9.126;2022-12-07T05:26:58;98161.53;;;5.67;nan
19108;BME280;9686;48.832;9.126;2022-12-07T05:29:23;98156.31;;;5.64;nan
19108;BME280;9686;48.832;9.126;2022-12-07T05:31:48;98157.19;;;5.66;nan
19108;BME280;9686;48.832;9.126;2022-12-07T05:34:13;98166.00;;;5.80;nan
19108;BME280;9686;48.832;9.126;2022-12-07T05:36:39;98162.53;;;5.78;nan
19108;BME280;9686;48.832;9.126;2022-12-07T05:39:05;98158.06;;;5.67;nan
19108;BME280;9686;48.832;9.126;2022-12-07T05:41:30;98163.25;;;5.68;nan
19108;BME280;9686;48.832;9.126;2022-12-07T05:44:14;98165.81;;;5.65;nan
19108;BME280;9686;48.832;9.126;2022-12-07T05:46:40;98171.81;;;5.63;nan
19108;BME280;9686;48.832;9.126;2022-12-07T05:49:05;98163.28;;;5.71;nan
19108;BME280;9686;48.832;9.126;2022-12-07T05:51:30;98169.41;;;5.75;nan
19108;BME280;9686;48.832;9.126;2022-12-07T05:53:56;98169.47;;;5.81;nan
19108;BME280;9686;48.832;9.126;2022-12-07T05:56:21;98168.66;;;5.86;nan
19108;BME280;9686;48.832;9.126;2022-12-07T05:58:47;98169.53;;;5.87;nan
19108;BME280;9686;48.832;9.126;2022-12-07T06:01:31;98169.59;;;5.90;nan
19108;BME280;9686;48.832;9.126;2022-12-07T06:03:56;98166.22;;;5.97;nan
19108;BME280;9686;48.832;9.126;2022-12-07T06:06:22;98161.88;;;5.95;nan
19108;BME280;9686;48.832;9.126;2022-12-07T06:08:47;98168.91;;;6.03;nan
19108;BME280;9686;48.832;9.126;2022-12-07T06:11:13;98175.50;;;5.80;nan
19108;BME280;9686;48.832;9.126;2022-12-07T06:13:57;98171.47;;;6.03;nan
19108;BME280;9686;48.832;9.126;2022-12-07T06:16:22;98171.34;;;5.93;nan
19108;BME280;9686;48.832;9.126;2022-12-07T06:18:48;98176.53;;;5.93;nan
19108;BME280;9686;48.832;9.126;2022-12-07T06:21:13;98172.34;;;6.04;nan
19108;BME280;9686;48.832;9.126;2022-12-07T06:23:39;98182.72;;;6.05;nan
19108;BME280;9686;48.832;9.126;2022-12-07T06:26:04;98173.34;;;6.18;nan
19108;BME280;9686;48.832;9.126;2022-12-07T06:28:30;98180.19;;;6.10;nan
19108;BME280;9686;48.832;9.126;2022-12-07T06:30:59;98173.50;;;6.30;nan
19108;BME280;9686;48.832;9.126;2022-12-07T06:33:25;98161.41;;;6.29;nan
19108;BME280;9686;48.832;9.126;2022-12-07T06:35:51;98174.25;;;6.22;nan
19108;BME280;9686;48.832;9.126;2022-12-07T06:38:16;98163.00;;;6.18;nan
19108;BME280;9686;48.832;9.126;2022-12-07T06:40:41;98161.31;;;6.22;nan
19108;BME280;9686;48.832;9.126;2022-12-07T06:43:07;98169.16;;;6.26;nan
19108;BME280;9686;48.832;9.126;2022-12-07T06:45:33;98170.03;;;6.28;nan
19108;BME280;9686;48.832;9.126;2022-12-07T06:47:58;98174.25;;;6.23;nan
19108;BME280;9686;48.832;9.126;2022-12-07T06:50:23;98168.19;;;6.19;nan
19108;BME280;9686;48.832;9.126;2022-12-07T06:52:50;98168.19;;;6.19;nan
19108;BME280;9686;48.832;9.126;2022-12-07T06:55:16;98178.66;;;6.29;nan
19108;BME280;9686;48.832;9.126;2022-12-07T06:57:41;98170.88;;;6.27;nan
19108;BME280;9686;48.832;9.126;2022-12-07T07:00:07;98175.91;;;6.13;nan
19108;BME280;9686;48.832;9.126;2022-12-07T07:02:32;98173.31;;;6.15;nan
19108;BME280;9686;48.832;9.126;2022-12-07T07:04:58;98175.06;;;6.17;nan
19108;BME280;9686;48.832;9.126;2022-12-07T07:07:23;98175.13;;;6.22;nan
19108;BME280;9686;48.832;9.126;2022-12-07T07:09:48;98172.66;;;6.33;nan
19108;BME280;9686;48.832;9.126;2022-12-07T07:12:14;98177.69;;;6.21;nan
19108;BME280;9686;48.832;9.126;2022-12-07T07:14:39;98180.38;;;6.28;nan
19108;BME280;9686;48.832;9.126;2022-12-07T07:17:04;98183.91;;;6.36;nan
19108;BME280;9686;48.832;9.126;2022-12-07T07:19:29;98180.50;;;6.40;nan
19108;BME280;9686;48.832;9.126;2022-12-07T07:21:55;98183.88;;;6.33;nan
19108;BME280;9686;48.832;9.126;2022-12-07T07:24:20;98189.03;;;6.29;nan
19108;BME280;9686;48.832;9.126;2022-12-07T07:26:45;98190.75;;;6.30;nan
19108;BME280;9686;48.832;9.126;2022-12-07T07:29:11;98187.34;;;6.34;nan
19108;BME280;9686;48.832;9.126;2022-12-07T07:31:36;98198.66;;;6.45;nan
19108;BME280;9686;48.832;9.126;2022-12-07T07:34:02;98194.34;;;6.44;nan
19108;BME280;9686;48.832;9.126;2022-12-07T07:36:27;98184.84;;;6.44;nan
19108;BME280;9686;48.832;9.126;2022-12-07T07:38:53;98185.81;;;6.53;nan
19108;BME280;9686;48.832;9.126;2022-12-07T07:41:18;98184.06;;;6.52;nan
19108;BME280;9686;48.832;9.126;2022-12-07T07:43:43;98191.94;;;6.62;nan
19108;BME280;9686;48.832;9.126;2022-12-07T07:46:08;98189.34;;;6.65;nan
19108;BME280;9686;48.832;9.126;2022-12-07T07:48:34;98197.13;;;6.64;nan
19108;BME280;9686;48.832;9.126;2022-12-07T07:50:59;98196.22;;;6.59;nan
19108;BME280;9686;48.832;9.126;2022-12-07T07:53:25;98195.41;;;6.66;nan
19108;BME280;9686;48.832;9.126;2022-12-07T07:55:52;98191.91;;;6.61;nan
19108;BME280;9686;48.832;9.126;2022-12-07T07:58:17;98201.22;;;6.43;nan
19108;BME280;9686;48.832;9.126;2022-12-07T08:00:43;98199.66;;;6.58;nan
19108;BME280;9686;48.832;9.126;2022-12-07T08:03:08;98197.19;;;6.74;nan
19108;BME280;9686;48.832;9.126;2022-12-07T08:05:33;98202.38;;;6.71;nan
19108;BME280;9686;48.832;9.126;2022-12-07T08:07:58;98204.09;;;6.71;nan
19108;BME280;9686;48.832;9.126;2022-12-07T08:10:24;98208.41;;;6.73;nan
19108;BME280;9686;48.832;9.126;2022-12-07T08:12:49;98201.59;;;6.82;nan
19108;BME280;9686;48.832;9.126;2022-12-07T08:15:33;98202.56;;;6.94;nan
19108;BME280;9686;48.832;9.126;2022-12-07T08:17:58;98200.75;;;6.84;nan
19108;BME280;9686;48.832;9.126;2022-12-07T08:20:24;98194.66;;;6.77;nan
19108;BME280;9686;48.832;9.126;2022-12-07T08:22:49;98209.38;;;6.80;nan
19108;BME280;9686;48.832;9.126;2022-12-07T08:25:15;98203.31;;;6.81;nan
19108;BME280;9686;48.832;9.126;2022-12-07T08:27:40;98205.09;;;6.87;nan
19108;BME280;9686;48.832;9.126;2022-12-07T08:30:06;98201.53;;;6.75;nan
19108;BME280;9686;48.832;9.126;2022-12-07T08:32:31;98214.63;;;6.89;nan
19108;BME280;9686;48.832;9.126;2022-12-07T08:34:56;98221.63;;;7.02;nan
19108;BME280;9686;48.832;9.126;2022-12-07T08:37:22;98210.47;;;7.11;nan
19108;BME280;9686;48.832;9.126;2022-12-07T08:39:47;98218.28;;;7.16;nan
19108;BME280;9686;48.832;9.126;2022-12-07T08:42:13;98207.94;;;7.22;nan
19108;BME280;9686;48.832;9.126;2022-12-07T08:44:38;98211.34;;;7.11;nan
19108;BME280;9686;48.832;9.126;2022-12-07T08:47:05;98219.16;;;7.18;nan
19108;BME280;9686;48.832;9.126;2022-12-07T08:49:36;98213.25;;;7.37;nan
19108;BME280;9686;48.832;9.126;2022-12-07T08:52:04;98214.13;;;7.40;nan
19108;BME280;9686;48.832;9.126;2022-12-07T08:54:30;98202.91;;;7.38;nan
19108;BME280;9686;48.832;9.126;2022-12-07T08:56:56;98211.53;;;7.39;nan
19108;BME280;9686;48.832;9.126;2022-12-07T08:59:22;98209.69;;;7.24;nan
19108;BME280;9686;48.832;9.126;2022-12-07T09:01:47;98209.84;;;7.42;nan
19108;BME280;9686;48.832;9.126;2022-12-07T09:04:13;98217.59;;;7.39;nan
19108;BME280;9686;48.832;9.126;2022-12-07T09:06:38;98215.88;;;7.43;nan
19108;BME280;9686;48.832;9.126;2022-12-07T09:09:04;98206.38;;;7.42;nan
19108;BME280;9686;48.832;9.126;2022-12-07T09:11:29;98211.59;;;7.50;nan
19108;BME280;9686;48.832;9.126;2022-12-07T09:13:55;98212.44;;;7.49;nan
19108;BME280;9686;48.832;9.126;2022-12-07T09:16:21;98212.53;;;7.58;nan
19108;BME280;9686;48.832;9.126;2022-12-07T09:18:46;98207.38;;;7.68;nan
19108;BME280;9686;48.832;9.126;2022-12-07T09:21:11;98205.69;;;7.77;nan
19108;BME280;9686;48.832;9.126;2022-12-07T09:23:37;98205.69;;;7.77;nan
19108;BME280;9686;48.832;9.126;2022-12-07T09:26:03;98209.16;;;7.76;nan
19108;BME280;9686;48.832;9.126;2022-12-07T09:28:30;98204.91;;;7.90;nan
19108;BME280;9686;48.832;9.126;2022-12-07T09:30:55;98206.66;;;7.98;nan
19108;BME280;9686;48.832;9.126;2022-12-07T09:33:21;98205.75;;;7.86;nan
19108;BME280;9686;48.832;9.126;2022-12-07T09:35:47;98207.50;;;7.91;nan
19108;BME280;9686;48.832;9.126;2022-12-07T09:38:14;98207.59;;;8.11;nan
19108;BME280;9686;48.832;9.126;2022-12-07T09:40:40;98200.69;;;8.16;nan
19108;BME280;9686;48.832;9.126;2022-12-07T09:43:13;98209.31;;;8.12;nan
19108;BME280;9686;48.832;9.126;2022-12-07T09:45:39;98201.56;;;8.20;nan
19108;BME280;9686;48.832;9.126;2022-12-07T09:48:04;98198.94;;;8.15;nan
19108;BME280;9686;48.832;9.126;2022-12-07T09:50:30;98202.44;;;8.31;nan
19108;BME280;9686;48.832;9.126;2022-12-07T09:53:07;98197.31;;;8.34;nan
19108;BME280;9686;48.832;9.126;2022-12-07T09:55:33;98192.91;;;8.28;nan
19108;BME280;9686;48.832;9.126;2022-12-07T09:58:01;98193.00;;;8.34;nan
19108;BME280;9686;48.832;9.126;2022-12-07T10:00:26;98192.91;;;8.28;nan
19108;BME280;9686;48.832;9.126;2022-12-07T10:02:57;98188.56;;;8.23;nan
19108;BME280;9686;48.832;9.126;2022-12-07T10:05:28;98179.13;;;8.34;nan
19108;BME280;9686;48.832;9.126;2022-12-07T10:07:55;98177.38;;;8.33;nan
19108;BME280;9686;48.832;9.126;2022-12-07T10:10:26;98177.34;;;8.31;nan
19108;BME280;9686;48.832;9.126;2022-12-07T10:13:00;98175.69;;;8.44;nan
19108;BME280;9686;48.832;9.126;2022-12-07T10:15:45;98174.81;;;8.38;nan
19108;BME280;9686;48.832;9.126;2022-12-07T10:18:36;98173.94;;;8.57;nan
19108;BME280;9686;48.832;9.126;2022-12-07T10:23:35;98166.16;;;8.46;nan
19108;BME280;9686;48.832;9.126;2022-12-07T10:26:20;98167.03;;;8.54;nan
19108;BME280;9686;48.832;9.126;2022-12-07T10:28:46;98161.00;;;8.63;nan
19108;BME280;9686;48.832;9.126;2022-12-07T10:31:17;98160.09;;;8.50;nan
19108;BME280;9686;48.832;9.126;2022-12-07T10:33:57;98164.44;;;8.68;nan
19108;BME280;9686;48.832;9.126;2022-12-07T10:41:25;98164.41;;;8.39;nan
19108;BME280;9686;48.832;9.126;2022-12-07T10:43:53;98157.41;;;8.15;nan
19108;BME280;9686;48.832;9.126;2022-12-07T10:46:27;98156.56;;;8.27;nan
19108;BME280;9686;48.832;9.126;2022-12-07T11:00:24;98140.97;;;8.18;nan
19108;BME280;9686;48.832;9.126;2022-12-07T11:03:13;98141.81;;;8.12;nan
19108;BME280;9686;48.832;9.126;2022-12-07T11:05:53;98134.03;;;8.08;nan
19108;BME280;9686;48.832;9.126;2022-12-07T11:08:43;98129.72;;;8.10;nan
19108;BME280;9686;48.832;9.126;2022-12-07T11:11:35;98139.25;;;8.29;nan
19108;BME280;9686;48.832;9.126;2022-12-07T11:19:45;98128.84;;;8.20;nan
19108;BME280;9686;48.832;9.126;2022-12-07T11:22:48;98125.34;;;8.05;nan
19108;BME280;9686;48.832;9.126;2022-12-07T11:25:32;98122.78;;;8.22;nan
19108;BME280;9686;48.832;9.126;2022-12-07T11:28:13;98128.78;;;7.89;nan
19108;BME280;9686;48.832;9.126;2022-12-07T11:33:53;98118.47;;;8.12;nan
19108;BME280;9686;48.832;9.126;2022-12-07T11:36:33;98120.19;;;8.10;nan
19108;BME280;9686;48.832;9.126;2022-12-07T11:39:04;98123.59;;;7.91;nan
19108;BME280;9686;48.832;9.126;2022-12-07T11:41:37;98114.94;;;7.90;nan
19108;BME280;9686;48.832;9.126;2022-12-07T11:44:14;98119.28;;;7.96;nan
19108;BME280;9686;48.832;9.126;2022-12-07T11:47:09;98111.47;;;7.90;nan
19108;BME280;9686;48.832;9.126;2022-12-07T11:49:47;98118.41;;;8.03;nan
19108;BME280;9686;48.832;9.126;2022-12-07T11:52:51;98108.91;;;7.99;nan
19108;BME280;9686;48.832;9.126;2022-12-07T11:55:46;98106.31;;;8.00;nan
19108;BME280;9686;48.832;9.126;2022-12-07T12:04:02;98108.09;;;8.26;nan
19108;BME280;9686;48.832;9.126;2022-12-07T12:06:30;98102.03;;;8.15;nan
19108;BME280;9686;48.832;9.126;2022-12-07T12:09:00;98099.41;;;8.09;nan
19108;BME280;9686;48.832;9.126;2022-12-07T12:17:25;98090.78;;;8.10;nan
19108;BME280;9686;48.832;9.126;2022-12-07T12:20:03;98094.22;;;8.18;nan
19108;BME280;9686;48.832;9.126;2022-12-07T12:22:38;98092.47;;;8.04;nan
19108;BME280;9686;48.832;9.126;2022-12-07T12:25:06;98094.22;;;8.13;nan
19108;BME280;9686;48.832;9.126;2022-12-07T12:27:37;98093.31;;;7.99;nan
19108;BME280;9686;48.832;9.126;2022-12-07T12:30:07;98089.91;;;8.08;nan
19108;BME280;9686;48.832;9.126;2022-12-07T12:32:48;98085.56;;;8.14;nan
19108;BME280;9686;48.832;9.126;2022-12-07T12:35:34;98084.69;;;8.06;nan
19108;BME280;9686;48.832;9.126;2022-12-07T12:40:47;98084.72;;;8.23;nan
19108;BME280;9686;48.832;9.126;2022-12-07T12:43:40;98080.38;;;8.17;nan
19108;BME280;9686;48.832;9.126;2022-12-07T12:51:44;98082.94;;;7.94;nan
19108;BME280;9686;48.832;9.126;2022-12-07T12:54:20;98079.47;;;7.98;nan
19108;BME280;9686;48.832;9.126;2022-12-07T12:57:13;98071.69;;;7.97;nan
19108;BME280;9686;48.832;9.126;2022-12-07T13:20:56;98038.84;;;8.14;nan
19108;BME280;9686;48.832;9.126;2022-12-07T13:31:41;98038.84;;;8.17;nan
19108;BME280;9686;48.832;9.126;2022-12-07T13:34:39;98042.28;;;7.90;nan
19108;BME280;9686;48.832;9.126;2022-12-07T13:37:27;98042.28;;;7.96;nan
19108;BME280;9686;48.832;9.126;2022-12-07T13:40:09;98033.63;;;7.99;nan
19108;BME280;9686;48.832;9.126;2022-12-07T13:42:41;98035.38;;;8.08;nan
19108;BME280;9686;48.832;9.126;2022-12-07T13:45:40;98034.50;;;8.05;nan
19108;BME280;9686;48.832;9.126;2022-12-07T13:50:57;98035.34;;;8.00;nan
19108;BME280;9686;48.832;9.126;2022-12-07T13:53:23;98031.06;;;8.19;nan
19108;BME280;9686;48.832;9.126;2022-12-07T13:55:48;98037.13;;;8.13;nan
19108;BME280;9686;48.832;9.126;2022-12-07T13:58:14;98034.53;;;8.15;nan
19108;BME280;9686;48.832;9.126;2022-12-07T14:00:40;98026.72;;;8.10;nan
19108;BME280;9686;48.832;9.126;2022-12-07T14:05:39;98031.06;;;8.14;nan
19108;BME280;9686;48.832;9.126;2022-12-07T14:08:22;98030.25;;;8.37;nan
19108;BME280;9686;48.832;9.126;2022-12-07T14:13:38;98035.38;;;8.26;nan
19108;BME280;9686;48.832;9.126;2022-12-07T14:16:21;98035.44;;;8.35;nan
19108;BME280;9686;48.832;9.126;2022-12-07T14:18:48;98033.69;;;8.43;nan
19108;BME280;9686;48.832;9.126;2022-12-07T14:21:16;98030.22;;;8.40;nan
19108;BME280;9686;48.832;9.126;2022-12-07T14:23:43;98028.44;;;8.31;nan
19108;BME280;9686;48.832;9.126;2022-12-07T14:26:19;98025.00;;;8.27;nan
19108;BME280;9686;48.832;9.126;2022-12-07T14:28:45;98024.19;;;8.34;nan
19108;BME280;9686;48.832;9.126;2022-12-07T14:31:16;98025.91;;;8.40;nan
19108;BME280;9686;48.832;9.126;2022-12-07T14:33:42;98022.41;;;8.24;nan
19108;BME280;9686;48.832;9.126;2022-12-07T14:36:12;98022.38;;;8.27;nan
19108;BME280;9686;48.832;9.126;2022-12-07T14:38:39;98025.84;;;7.99;nan
19108;BME280;9686;48.832;9.126;2022-12-07T14:41:12;98031.06;;;8.22;nan
19108;BME280;9686;48.832;9.126;2022-12-07T14:43:59;98023.25;;;8.25;nan
19108;BME280;9686;48.832;9.126;2022-12-07T14:46:25;98026.72;;;8.25;nan
19108;BME280;9686;48.832;9.126;2022-12-07T14:48:50;98032.78;;;8.29;nan
19108;BME280;9686;48.832;9.126;2022-12-07T14:51:16;98028.47;;;8.17;nan
19108;BME280;9686;48.832;9.126;2022-12-07T14:53:48;98031.91;;;8.15;nan
19108;BME280;9686;48.832;9.126;2022-12-07T14:56:14;98035.34;;;7.95;nan
19108;BME280;9686;48.832;9.126;2022-12-07T14:58:39;98030.16;;;7.97;nan
19108;BME280;9686;48.832;9.126;2022-12-07T15:01:05;98037.09;;;8.01;nan
19108;BME280;9686;48.832;9.126;2022-12-07T15:03:30;98038.81;;;8.07;nan
19108;BME280;9686;48.832;9.126;2022-12-07T15:05:55;98043.13;;;7.95;nan
19108;BME280;9686;48.832;9.126;2022-12-07T15:08:21;98035.34;;;7.98;nan
19108;BME280;9686;48.832;9.126;2022-12-07T15:10:46;98034.50;;;7.99;nan
19108;BME280;9686;48.832;9.126;2022-12-07T15:13:11;98039.69;;;7.89;nan
19108;BME280;9686;48.832;9.126;2022-12-07T15:15:55;98035.34;;;7.88;nan
19108;BME280;9686;48.832;9.126;2022-12-07T15:18:22;98035.31;;;7.74;nan
19108;BME280;9686;48.832;9.126;2022-12-07T15:20:48;98037.88;;;7.62;nan
19108;BME280;9686;48.832;9.126;2022-12-07T15:23:13;98039.63;;;7.66;nan
19108;BME280;9686;48.832;9.126;2022-12-07T15:25:43;98036.09;;;7.47;nan
19108;BME280;9686;48.832;9.126;2022-12-07T15:28:09;98031.78;;;7.51;nan
19108;BME280;9686;48.832;9.126;2022-12-07T15:30:37;98033.56;;;7.56;nan
19108;BME280;9686;48.832;9.126;2022-12-07T15:33:02;98039.56;;;7.48;nan
19108;BME280;9686;48.832;9.126;2022-12-07T15:35:27;98039.63;;;7.61;nan
19108;BME280;9686;48.832;9.126;2022-12-07T15:37:53;98035.22;;;7.48;nan
19108;BME280;9686;48.832;9.126;2022-12-07T15:40:18;98035.22;;;7.45;nan
19108;BME280;9686;48.832;9.126;2022-12-07T15:42:43;98032.63;;;7.40;nan
19108;BME280;9686;48.832;9.126;2022-12-07T15:45:09;98030.91;;;7.53;nan
19108;BME280;9686;48.832;9.126;2022-12-07T15:47:39;98034.38;;;7.46;nan
19108;BME280;9686;48.832;9.126;2022-12-07T15:50:15;98027.47;;;7.50;nan
19108;BME280;9686;48.832;9.126;2022-12-07T15:52:41;98021.38;;;7.31;nan
19108;BME280;9686;48.832;9.126;2022-12-07T15:55:08;98023.97;;;7.34;nan